Time;durP1;ratioP1;P1;durP2;ratioP2;P2;SDS_P1;SDS_P2;PMS_P1;PMS_P2;Temp;Humidity;BMP_temperature;BMP_pressure;BME280_temperature;BME280_humidity;BME280_pressure;Samples;Min_cycle;Max_cycle;Signal;HPM_P1;HPM_P2
2022/04/22 00:00:19;;;;;;;27.87;19.83;;;;;;;10.92;71.06;99831.81;4981502;28;20452;-78
2022/04/22 00:02:47;;;;;;;30.03;21.93;;;;;;;10.88;71.24;99826.91;4981427;28;20479;-77
2022/04/22 00:05:14;;;;;;;23.30;19.20;;;;;;;10.99;71.41;99828.50;4980771;28;20457;-77
2022/04/22 00:07:41;;;;;;;27.87;21.17;;;;;;;11.05;71.36;99835.94;4977117;28;20591;-77
2022/04/22 00:10:09;;;;;;;30.90;21.13;;;;;;;11.03;71.70;99819.19;4981532;28;20456;-77
2022/04/22 00:12:36;;;;;;;28.53;20.27;;;;;;;10.98;71.72;99819.66;4982072;28;20537;-78
2022/04/22 00:15:03;;;;;;;29.33;21.20;;;;;;;10.89;72.07;99824.09;4982733;28;20459;-77
2022/04/22 00:17:30;;;;;;;24.57;19.43;;;;;;;10.95;71.91;99819.13;4980913;28;21001;-77
2022/04/22 00:19:58;;;;;;;25.20;20.43;;;;;;;10.91;72.08;99816.75;4982408;28;20520;-78
2022/04/22 00:22:24;;;;;;;24.77;19.90;;;;;;;11.03;71.85;99803.16;4981756;28;21295;-78
2022/04/22 00:24:51;;;;;;;27.30;19.00;;;;;;;10.95;72.34;99803.91;4982815;28;20640;-79
2022/04/22 00:27:17;;;;;;;24.20;20.73;;;;;;;10.94;72.35;99804.91;4976402;28;20481;-78
2022/04/22 00:29:44;;;;;;;25.63;18.73;;;;;;;10.91;72.85;99805.22;4975452;28;20480;-79
2022/04/22 00:32:11;;;;;;;27.60;20.20;;;;;;;10.82;73.32;99811.50;4980673;28;20603;-79
2022/04/22 00:34:37;;;;;;;22.13;17.60;;;;;;;10.90;73.21;99803.53;4982382;28;20869;-78
2022/04/22 00:37:06;;;;;;;24.70;18.93;;;;;;;10.79;73.66;99801.09;4981726;28;21180;-79
2022/04/22 00:39:32;;;;;;;24.60;17.83;;;;;;;10.80;73.90;99802.75;4982178;28;20444;-78
2022/04/22 00:42:07;;;;;;;25.37;20.33;;;;;;;10.86;74.04;99803.00;4981523;28;20480;-79
2022/04/22 00:44:34;;;;;;;21.53;18.90;;;;;;;10.83;73.86;99797.13;4981248;28;20511;-79
2022/04/22 00:47:00;;;;;;;21.77;19.47;;;;;;;10.87;73.85;99799.34;4980970;28;20547;-79
2022/04/22 00:49:27;;;;;;;21.30;18.37;;;;;;;10.82;74.45;99804.31;4977256;28;20444;-77
2022/04/22 00:51:54;;;;;;;21.73;18.10;;;;;;;10.78;74.39;99792.25;4981585;28;20488;-77
2022/04/22 00:54:22;;;;;;;22.30;18.53;;;;;;;10.73;74.92;99786.50;4984245;28;20475;-77
2022/04/22 00:56:50;;;;;;;21.57;18.87;;;;;;;10.81;74.83;99783.06;4985305;28;20476;-77
2022/04/22 00:59:18;;;;;;;22.43;19.20;;;;;;;10.84;74.53;99788.09;4985733;28;20452;-77
2022/04/22 01:01:44;;;;;;;24.60;19.43;;;;;;;10.77;74.88;99776.34;4984368;28;20489;-77
2022/04/22 01:09:51;;;;;;;23.00;18.40;;;;;;;10.72;75.83;99768.78;4985134;28;20529;-78
2022/04/22 01:12:18;;;;;;;25.33;18.77;;;;;;;10.70;76.28;99776.13;4988989;28;20480;-77
2022/04/22 01:14:45;;;;;;;23.03;18.73;;;;;;;10.65;76.42;99768.53;4985402;28;20488;-78
2022/04/22 01:17:12;;;;;;;21.93;18.00;;;;;;;10.75;76.74;99779.19;4984504;28;20480;-78
2022/04/22 01:19:39;;;;;;;22.70;19.30;;;;;;;10.85;76.13;99771.91;4972833;28;20562;-78
2022/04/22 01:22:08;;;;;;;22.90;19.07;;;;;;;10.74;76.45;99773.00;4985182;28;20480;-78
2022/04/22 01:24:35;;;;;;;23.67;20.40;;;;;;;10.69;76.99;99769.06;4985794;28;20483;-78
2022/04/22 01:27:02;;;;;;;21.43;18.90;;;;;;;10.72;76.85;99761.59;4984496;28;20491;-80
2022/04/22 01:29:29;;;;;;;23.73;19.50;;;;;;;10.73;76.69;99759.78;4984700;28;20989;-79
2022/04/22 01:31:56;;;;;;;25.23;20.13;;;;;;;10.82;76.84;99769.53;4983433;28;20483;-81
2022/04/22 01:34:22;;;;;;;24.20;20.07;;;;;;;10.75;76.87;99763.13;4985475;28;20472;-80
2022/04/22 01:36:49;;;;;;;26.73;20.77;;;;;;;10.63;77.03;99764.38;4984902;28;20464;-80
2022/04/22 01:39:17;;;;;;;29.73;22.13;;;;;;;10.73;76.86;99754.44;4984999;28;20511;-80
2022/04/22 01:41:43;;;;;;;26.73;19.77;;;;;;;10.51;77.03;99751.22;4983797;28;20491;-80
2022/04/22 01:44:10;;;;;;;27.37;21.20;;;;;;;10.51;77.07;99753.88;4984798;28;20985;-81
2022/04/22 01:46:37;;;;;;;24.47;20.70;;;;;;;10.48;77.40;99759.53;4984155;28;20505;-81
2022/04/22 01:49:04;;;;;;;26.00;20.40;;;;;;;10.50;77.30;99749.56;4984955;28;20472;-81
2022/04/22 01:51:30;;;;;;;21.77;18.67;;;;;;;10.50;76.62;99741.53;4984491;28;20479;-81
2022/04/22 01:53:57;;;;;;;23.63;18.70;;;;;;;10.55;76.88;99749.06;4984992;28;20460;-79
2022/04/22 01:56:25;;;;;;;25.20;20.67;;;;;;;10.60;76.36;99745.94;4984279;28;20488;-79
2022/04/22 01:58:52;;;;;;;24.23;20.10;;;;;;;10.53;76.46;99740.38;4985160;28;20455;-81
2022/04/22 02:01:19;;;;;;;23.70;19.80;;;;;;;10.42;77.19;99740.63;4983415;28;20515;-78
2022/04/22 02:03:45;;;;;;;27.30;21.50;;;;;;;10.46;77.13;99732.13;4984861;28;20876;-79
2022/04/22 02:06:12;;;;;;;23.43;19.40;;;;;;;10.40;77.14;99734.56;4983494;28;20551;-80
2022/04/22 02:08:39;;;;;;;24.33;20.60;;;;;;;10.34;77.55;99728.00;4985133;28;20524;-79
2022/04/22 02:11:06;;;;;;;24.13;20.73;;;;;;;10.36;77.37;99734.03;4983008;28;20483;-79
2022/04/22 02:13:36;;;;;;;24.40;20.27;;;;;;;10.34;77.68;99731.50;4985067;28;20456;-78
2022/04/22 02:16:04;;;;;;;29.77;22.30;;;;;;;10.22;77.94;99723.84;4998841;28;20486;-78
2022/04/22 02:18:34;;;;;;;25.60;21.60;;;;;;;10.35;77.49;99729.69;4987222;28;20464;-78
2022/04/22 02:21:00;;;;;;;27.60;22.67;;;;;;;10.37;77.62;99733.03;5003464;28;20472;-79
2022/04/22 02:23:27;;;;;;;29.00;21.67;;;;;;;10.38;77.83;99731.19;4985673;28;20519;-79
2022/04/22 02:25:54;;;;;;;22.57;19.87;;;;;;;10.41;77.75;99728.22;4989657;28;20476;-80
2022/04/22 02:28:31;;;;;;;27.67;22.50;;;;;;;10.34;78.04;99715.47;5004285;28;20440;-81
2022/04/22 02:31:01;;;;;;;27.93;22.33;;;;;;;10.20;78.47;99715.13;4989108;28;20563;-77
2022/04/22 02:33:28;;;;;;;29.53;23.20;;;;;;;10.04;79.76;99711.31;4983665;28;20460;-78
2022/04/22 02:35:54;;;;;;;26.10;22.37;;;;;;;10.26;79.38;99714.50;4984029;28;20490;-79
2022/04/22 02:38:21;;;;;;;31.90;24.37;;;;;;;10.13;79.26;99707.72;4984314;28;20464;-79
2022/04/22 02:46:17;;;;;;;31.07;25.17;;;;;;;10.07;79.70;99703.00;4982844;28;20538;-77
2022/04/22 02:48:44;;;;;;;28.60;23.63;;;;;;;10.08;79.79;99699.31;4983179;28;20503;-78
2022/04/22 02:51:11;;;;;;;31.80;26.03;;;;;;;9.97;80.31;99705.72;4982400;28;20484;-78
2022/04/22 02:53:37;;;;;;;36.47;25.90;;;;;;;9.99;80.24;99708.25;4983912;28;20495;-78
2022/04/22 02:56:06;;;;;;;27.83;22.77;;;;;;;9.98;80.23;99696.72;4983176;28;20487;-78
2022/04/22 02:58:33;;;;;;;29.03;23.00;;;;;;;9.97;79.68;99705.72;4983645;28;20479;-79
2022/04/22 03:01:00;;;;;;;31.27;23.53;;;;;;;9.89;80.08;99708.28;4982999;28;20488;-79
2022/04/22 03:03:28;;;;;;;25.77;21.20;;;;;;;9.70;80.05;99687.88;4983773;28;20522;-79
2022/04/22 03:05:55;;;;;;;28.27;22.60;;;;;;;9.76;79.89;99695.31;4982833;28;21075;-80
2022/04/22 03:08:21;;;;;;;27.00;22.53;;;;;;;9.73;79.98;99694.75;4983384;28;20504;-81
2022/04/22 03:10:48;;;;;;;34.60;24.10;;;;;;;9.76;80.05;99687.28;4973041;28;20475;-79
2022/04/22 03:13:16;;;;;;;30.50;23.93;;;;;;;9.82;79.96;99687.69;4983532;28;21041;-79
2022/04/22 03:15:43;;;;;;;28.57;22.70;;;;;;;9.74;79.75;99685.78;4983177;28;20507;-80
2022/04/22 03:18:09;;;;;;;31.17;22.60;;;;;;;9.62;80.02;99687.81;4967256;28;20449;-79
2022/04/22 03:20:38;;;;;;;32.17;24.60;;;;;;;9.70;80.27;99689.72;4983150;28;20483;-79
2022/04/22 03:23:05;;;;;;;33.43;24.10;;;;;;;9.68;80.17;99692.53;4983780;28;20452;-79
2022/04/22 03:25:31;;;;;;;29.70;23.97;;;;;;;9.65;80.33;99690.16;4983103;28;20896;-79
2022/04/22 03:27:58;;;;;;;35.27;26.13;;;;;;;9.67;80.38;99690.88;4983572;28;20472;-78
2022/04/22 03:30:25;;;;;;;33.73;25.47;;;;;;;9.60;80.50;99684.44;4982777;28;20464;-78
2022/04/22 03:32:52;;;;;;;30.50;23.80;;;;;;;9.50;80.75;99694.31;4982409;28;20460;-79
2022/04/22 03:35:18;;;;;;;33.00;26.57;;;;;;;9.42;81.39;99685.19;4982524;28;20441;-76
2022/04/22 03:37:46;;;;;;;33.43;25.60;;;;;;;9.28;81.69;99685.69;4982764;28;20914;-78
2022/04/22 03:40:13;;;;;;;36.03;26.63;;;;;;;9.22;82.00;99681.78;4968178;28;20513;-78
2022/04/22 03:42:41;;;;;;;37.03;27.53;;;;;;;8.99;83.07;99675.97;4979263;28;20485;-78
2022/04/22 03:45:09;;;;;;;33.40;25.60;;;;;;;9.00;83.08;99672.31;4981240;28;20480;-78
2022/04/22 03:47:35;;;;;;;36.70;26.70;;;;;;;9.04;83.10;99680.84;4974169;28;20494;-79
2022/04/22 03:50:02;;;;;;;37.43;27.97;;;;;;;9.10;82.96;99676.78;4982778;28;21083;-77
2022/04/22 03:52:29;;;;;;;39.20;25.97;;;;;;;9.04;83.42;99676.38;4982373;28;20476;-77
2022/04/22 03:54:57;;;;;;;35.77;27.13;;;;;;;9.07;83.50;99674.41;4982498;28;20448;-78
2022/04/22 04:00:08;;;;;;;40.00;27.53;;;;;;;9.04;83.37;99671.03;4981857;28;20503;-77
2022/04/22 04:02:35;;;;;;;34.27;27.10;;;;;;;8.98;83.23;99673.44;4982179;28;20448;-77
2022/04/22 04:05:02;;;;;;;38.30;27.17;;;;;;;8.96;83.60;99678.09;4982908;28;20508;-78
2022/04/22 04:07:29;;;;;;;44.77;27.97;;;;;;;8.99;83.22;99673.31;4982073;28;20558;-77
2022/04/22 04:18:10;;;;;;;38.47;28.43;;;;;;;8.97;83.48;99666.41;4981959;28;20933;-78
2022/04/22 04:23:20;;;;;;;40.13;29.20;;;;;;;8.82;84.17;99672.22;4982600;28;20459;-80
2022/04/22 04:25:50;;;;;;;40.43;28.20;;;;;;;8.99;83.57;99678.63;4979220;28;20643;-79
2022/04/22 04:28:17;;;;;;;39.80;28.23;;;;;;;8.95;83.91;99673.72;4981335;28;20491;-80
2022/04/22 04:30:45;;;;;;;35.80;26.00;;;;;;;8.92;83.88;99679.34;4986034;28;20473;-80
2022/04/22 04:33:12;;;;;;;32.93;25.03;;;;;;;8.96;84.25;99675.41;4985296;28;20495;-80
2022/04/22 04:35:40;;;;;;;37.50;26.53;;;;;;;8.97;84.15;99669.09;4985591;28;20479;-78
2022/04/22 04:38:07;;;;;;;38.13;28.57;;;;;;;8.86;84.61;99662.09;4981178;28;20502;-78
2022/04/22 04:40:34;;;;;;;36.40;26.73;;;;;;;9.12;83.95;99669.47;4985144;28;20476;-78
2022/04/22 04:43:03;;;;;;;38.87;27.57;;;;;;;9.23;83.50;99667.47;4966766;28;20485;-79
2022/04/22 04:45:29;;;;;;;37.03;26.57;;;;;;;9.22;83.74;99659.63;4985032;28;20491;-79
2022/04/22 04:47:56;;;;;;;34.60;26.00;;;;;;;9.20;83.48;99662.44;4965979;29;20485;-80
2022/04/22 04:50:23;;;;;;;37.13;27.37;;;;;;;9.40;82.92;99657.84;4974284;28;20460;-79
2022/04/22 04:52:49;;;;;;;39.70;27.40;;;;;;;9.35;82.59;99657.44;4992023;28;20460;-80
2022/04/22 04:55:16;;;;;;;34.07;28.77;;;;;;;9.40;82.22;99662.34;4995256;28;20455;-79
2022/04/22 04:57:43;;;;;;;35.37;27.43;;;;;;;9.69;81.98;99666.69;4987324;28;20455;-80
2022/04/22 05:00:12;;;;;;;38.10;26.70;;;;;;;9.68;81.52;99660.50;4984149;28;20469;-79
2022/04/22 05:02:40;;;;;;;33.80;26.20;;;;;;;9.77;81.25;99656.94;4985104;28;20527;-79
2022/04/22 05:05:09;;;;;;;34.43;27.07;;;;;;;9.72;81.38;99656.56;4985023;28;20480;-78
2022/04/22 05:07:46;;;;;;;39.90;28.40;;;;;;;9.98;80.58;99655.81;4977556;28;20495;-79
2022/04/22 05:10:13;;;;;;;36.17;28.13;;;;;;;9.93;80.71;99656.28;4982727;28;20536;-80
2022/04/22 05:12:39;;;;;;;36.87;26.73;;;;;;;9.87;81.13;99656.03;4993050;28;20486;-80
2022/04/22 05:15:08;;;;;;;36.00;26.37;;;;;;;9.86;80.93;99652.53;5004877;28;20457;-76
2022/04/22 05:17:36;;;;;;;36.17;27.90;;;;;;;9.92;80.35;99651.91;4988019;28;20456;-81
2022/04/22 05:20:04;;;;;;;37.40;30.00;;;;;;;9.91;80.28;99652.06;4986017;28;20440;-81
2022/04/22 05:22:30;;;;;;;35.77;27.37;;;;;;;9.88;80.58;99644.38;4987243;28;20483;-81
2022/04/22 05:24:57;;;;;;;39.93;29.20;;;;;;;9.75;81.93;99658.91;4987747;28;20509;-84
2022/04/22 05:27:23;;;;;;;40.23;30.87;;;;;;;9.97;81.10;99657.66;4990515;28;20551;-80
2022/04/22 05:32:39;;;;;;;42.40;30.90;;;;;;;10.07;80.82;99660.25;4984019;28;20530;-81
2022/04/22 05:35:06;;;;;;;38.20;29.50;;;;;;;10.12;80.51;99660.66;4985790;28;20444;-74
2022/04/22 05:37:44;;;;;;;36.03;28.00;;;;;;;10.34;79.63;99653.19;4979318;28;20954;-78
2022/04/22 05:40:12;;;;;;;39.10;29.27;;;;;;;10.29;79.69;99644.75;4981563;28;20448;-87
2022/04/22 05:42:39;;;;;;;38.00;28.87;;;;;;;9.94;80.69;99655.28;4949327;28;20459;-89
2022/04/22 05:45:07;;;;;;;36.40;28.70;;;;;;;10.10;80.61;99651.94;4983981;28;20472;-85
2022/04/22 05:47:35;;;;;;;33.90;27.03;;;;;;;10.28;79.85;99651.09;4979133;28;20484;-85
2022/04/22 05:50:04;;;;;;;33.00;24.90;;;;;;;10.15;80.18;99649.63;4997574;28;20530;-88
2022/04/22 05:52:32;;;;;;;41.57;26.10;;;;;;;10.29;79.96;99650.94;4980488;28;20499;-87
2022/04/22 05:55:02;;;;;;;33.00;25.90;;;;;;;10.21;79.61;99650.00;4986543;28;20511;-86
2022/04/22 05:57:30;;;;;;;31.03;24.90;;;;;;;10.26;79.76;99659.28;5003998;28;20518;-90
2022/04/22 05:59:57;;;;;;;30.10;24.87;;;;;;;10.15;79.27;99649.63;4994540;28;20525;-90
2022/04/22 06:02:24;;;;;;;28.37;23.40;;;;;;;10.08;79.65;99650.41;4989261;28;20491;-89
2022/04/22 06:04:54;;;;;;;31.83;23.20;;;;;;;10.33;78.87;99659.53;4984403;28;20456;-82
2022/04/22 06:07:21;;;;;;;27.73;21.50;;;;;;;10.28;78.81;99659.13;4994229;28;20487;-78
2022/04/22 06:12:32;;;;;;;25.70;21.47;;;;;;;10.42;78.37;99653.25;5002646;28;21034;-77
2022/04/22 06:14:59;;;;;;;29.43;21.90;;;;;;;10.43;78.80;99652.25;5003358;28;20451;-77
2022/04/22 06:17:27;;;;;;;26.30;21.53;;;;;;;10.47;77.76;99658.97;4994859;28;20495;-76
2022/04/22 06:19:55;;;;;;;27.30;21.63;;;;;;;10.45;78.15;99658.31;4983795;28;20440;-76
2022/04/22 06:22:22;;;;;;;25.87;20.70;;;;;;;10.20;78.24;99651.84;4993494;28;20973;-76
2022/04/22 06:24:48;;;;;;;26.93;21.23;;;;;;;10.64;77.23;99648.41;4996946;28;20456;-77
2022/04/22 06:27:23;;;;;;;27.70;22.40;;;;;;;10.39;77.41;99645.53;4982970;28;20476;-77
2022/04/22 06:29:50;;;;;;;25.80;20.20;;;;;;;10.64;76.68;99651.06;4983689;28;20539;-78
2022/04/22 06:32:17;;;;;;;23.80;19.57;;;;;;;10.86;75.89;99631.00;4981476;28;20469;-77
2022/04/22 06:34:45;;;;;;;21.03;18.00;;;;;;;11.12;74.07;99636.34;4983583;28;20825;-76
2022/04/22 06:37:13;;;;;;;20.40;16.07;;;;;;;10.36;76.56;99635.16;4982424;28;20543;-77
2022/04/22 06:47:51;;;;;;;18.10;15.37;;;;;;;10.56;75.58;99646.53;4983242;28;20480;-80
2022/04/22 06:50:19;;;;;;;19.20;15.07;;;;;;;10.79;74.51;99648.69;4983398;28;21664;-81
2022/04/22 06:52:48;;;;;;;21.60;15.60;;;;;;;10.76;73.78;99644.47;4983109;28;20542;-78
2022/04/22 06:55:15;;;;;;;16.63;14.37;;;;;;;10.89;73.86;99641.41;4982617;28;21011;-76
2022/04/22 06:57:47;;;;;;;19.07;15.30;;;;;;;10.92;73.16;99639.25;4985237;28;20532;-76
2022/04/22 07:00:15;;;;;;;18.77;13.87;;;;;;;11.42;71.46;99637.66;5000397;28;20487;-77
2022/04/22 07:02:42;;;;;;;22.87;13.83;;;;;;;11.58;70.61;99644.06;4982918;28;20479;-76
2022/04/22 07:05:11;;;;;;;15.90;12.73;;;;;;;11.61;70.22;99641.94;4983184;28;20443;-76
2022/04/22 07:07:38;;;;;;;16.33;14.57;;;;;;;11.35;70.65;99641.13;4983467;28;20527;-76
2022/04/22 07:10:07;;;;;;;17.80;14.27;;;;;;;11.62;70.07;99645.44;4971564;28;20544;-77
2022/04/22 07:12:34;;;;;;;21.53;15.00;;;;;;;11.90;68.98;99645.19;4969780;28;20562;-77
2022/04/22 07:15:04;;;;;;;15.37;13.20;;;;;;;12.28;68.30;99641.06;4967035;28;20560;-76
2022/04/22 07:17:32;;;;;;;15.73;13.17;;;;;;;11.79;68.08;99646.31;4974167;28;20628;-75
2022/04/22 07:20:00;;;;;;;15.63;12.33;;;;;;;11.52;69.29;99650.06;4981774;28;20479;-76
2022/04/22 07:22:27;;;;;;;14.30;12.90;;;;;;;11.59;69.56;99646.56;4980824;28;20484;-76
2022/04/22 07:24:54;;;;;;;15.70;12.90;;;;;;;10.91;70.89;99642.06;4982199;28;20495;-75
2022/04/22 07:27:26;;;;;;;15.67;12.97;;;;;;;11.26;70.59;99643.75;4976309;28;20571;-75
2022/04/22 07:29:53;;;;;;;17.33;13.87;;;;;;;11.55;69.45;99639.06;4963158;28;20448;-75
2022/04/22 07:32:20;;;;;;;18.33;15.00;;;;;;;11.78;68.70;99639.28;4981026;28;21048;-76
2022/04/22 07:34:47;;;;;;;16.77;13.83;;;;;;;11.70;68.99;99632.06;4982775;28;20440;-75
2022/04/22 07:37:14;;;;;;;17.30;14.00;;;;;;;12.48;66.45;99638.91;4981671;28;20484;-76
2022/04/22 07:39:41;;;;;;;15.97;13.33;;;;;;;12.55;66.47;99631.88;4982986;28;20468;-76
2022/04/22 07:42:09;;;;;;;16.17;13.27;;;;;;;13.30;63.51;99627.16;4982052;28;20472;-76
2022/04/22 07:47:22;;;;;;;17.10;11.37;;;;;;;13.49;59.83;99625.97;4980114;28;20475;-77
2022/04/22 07:49:51;;;;;;;14.93;13.33;;;;;;;13.48;62.02;99633.16;4982516;28;20451;-76
2022/04/22 07:52:17;;;;;;;17.03;12.60;;;;;;;12.86;62.63;99631.13;4972769;28;20585;-76
2022/04/22 07:54:44;;;;;;;15.80;13.73;;;;;;;12.82;63.37;99630.63;4962631;29;20456;-76
2022/04/22 07:57:11;;;;;;;16.40;12.40;;;;;;;13.63;61.29;99622.53;4961359;28;20481;-76
2022/04/22 07:59:41;;;;;;;14.97;12.70;;;;;;;13.93;59.59;99618.13;4975911;28;20473;-76
2022/04/22 08:02:08;;;;;;;14.20;12.70;;;;;;;14.65;58.60;99627.69;4980790;28;20582;-76
2022/04/22 08:04:35;;;;;;;15.40;13.50;;;;;;;16.06;53.64;99608.84;4977407;28;20468;-76
2022/04/22 08:07:02;;;;;;;14.30;12.80;;;;;;;16.13;51.73;99625.09;4984754;28;20883;-76
2022/04/22 08:09:29;;;;;;;13.83;12.53;;;;;;;16.66;50.47;99617.44;4979678;28;20484;-76
2022/04/22 08:11:55;;;;;;;12.90;11.70;;;;;;;17.45;47.51;99624.41;4980008;28;20508;-76
2022/04/22 08:14:23;;;;;;;11.67;10.53;;;;;;;18.98;43.64;99620.34;4981193;28;20547;-76
2022/04/22 08:16:51;;;;;;;10.73;9.63;;;;;;;18.97;43.30;99633.06;4980224;28;20498;-76
2022/04/22 08:19:18;;;;;;;10.60;9.50;;;;;;;19.44;42.48;99626.66;4980857;28;20433;-76
2022/04/22 08:21:45;;;;;;;10.33;9.33;;;;;;;18.72;43.46;99624.69;4975671;28;20475;-77
2022/04/22 08:24:12;;;;;;;9.20;8.10;;;;;;;20.37;39.70;99628.91;4981151;28;20752;-77
2022/04/22 08:26:39;;;;;;;9.17;8.27;;;;;;;18.23;43.93;99624.06;4980892;28;20492;-76
2022/04/22 08:29:06;;;;;;;10.20;9.20;;;;;;;16.57;48.62;99627.53;4981218;28;20495;-76
2022/04/22 08:31:33;;;;;;;11.33;8.30;;;;;;;17.25;47.59;99618.91;4979140;28;20534;-77
2022/04/22 08:34:00;;;;;;;14.50;8.20;;;;;;;17.72;45.69;99624.50;4981505;28;20480;-76
2022/04/22 08:36:29;;;;;;;14.67;8.77;;;;;;;15.94;50.03;99616.59;4977706;28;20512;-76
2022/04/22 08:38:57;;;;;;;9.70;8.37;;;;;;;16.23;49.96;99625.59;4981352;28;20480;-75
2022/04/22 08:41:24;;;;;;;10.77;9.10;;;;;;;15.23;52.23;99621.72;4980558;28;20472;-75
2022/04/22 08:43:52;;;;;;;9.07;8.10;;;;;;;15.34;52.59;99615.84;4981000;28;20476;-75
2022/04/22 08:51:49;;;;;;;8.60;7.80;;;;;;;16.78;49.03;99601.53;4976522;28;20492;-76
2022/04/22 08:54:16;;;;;;;9.10;7.53;;;;;;;16.14;50.20;99611.41;4978630;28;20464;-76
2022/04/22 08:56:43;;;;;;;11.97;8.70;;;;;;;15.51;51.89;99607.56;4979762;28;20997;-75
2022/04/22 08:59:10;;;;;;;9.20;8.27;;;;;;;14.94;53.04;99611.78;4981057;28;20465;-75
2022/04/22 09:01:37;;;;;;;9.27;7.90;;;;;;;14.72;54.07;99602.75;4979536;28;20539;-79
2022/04/22 09:04:06;;;;;;;9.40;8.50;;;;;;;13.91;56.75;99603.22;4980505;28;20487;-74
2022/04/22 09:06:33;;;;;;;13.13;8.53;;;;;;;14.39;55.56;99597.63;4979504;28;20480;-74
2022/04/22 09:09:02;;;;;;;9.80;7.93;;;;;;;13.84;56.59;99604.94;4979667;28;20507;-74
2022/04/22 09:11:30;;;;;;;14.30;8.27;;;;;;;14.18;55.56;99598.31;4979774;28;20508;-75
2022/04/22 09:13:59;;;;;;;7.90;7.13;;;;;;;13.72;56.99;99607.19;4987727;28;20542;-74
2022/04/22 09:16:26;;;;;;;8.77;7.17;;;;;;;14.31;56.26;99604.75;4983121;28;20567;-74
2022/04/22 09:18:59;;;;;;;8.30;7.50;;;;;;;14.54;54.74;99603.88;4985722;28;20949;-74
2022/04/22 09:21:29;;;;;;;12.17;7.47;;;;;;;14.75;54.60;99588.91;4983342;28;20484;-74
2022/04/22 09:23:56;;;;;;;11.90;7.40;;;;;;;15.59;52.16;99581.34;4988661;28;20444;-74
2022/04/22 09:26:23;;;;;;;8.50;6.90;;;;;;;16.48;50.04;99590.13;4992804;28;20699;-74
2022/04/22 09:28:57;;;;;;;9.93;8.20;;;;;;;16.48;49.13;99582.84;4998294;28;20468;-75
2022/04/22 09:31:25;;;;;;;11.50;7.97;;;;;;;16.47;48.56;99580.34;4990028;28;20555;-74
2022/04/22 09:33:52;;;;;;;10.10;6.93;;;;;;;16.04;50.57;99575.84;4977680;28;20467;-73
2022/04/22 09:44:54;;;;;;;9.77;6.93;;;;;;;17.63;46.34;99569.78;4997340;28;20542;-75
2022/04/22 09:47:21;;;;;;;8.23;6.97;;;;;;;18.14;46.00;99568.47;4993007;28;20484;-74
2022/04/22 09:49:47;;;;;;;9.00;7.60;;;;;;;17.01;47.09;99570.78;4980190;28;20472;-74
2022/04/22 09:52:14;;;;;;;11.60;8.27;;;;;;;16.14;49.45;99570.09;4981031;28;20499;-74
2022/04/22 09:54:56;;;;;;;8.53;7.63;;;;;;;16.30;48.37;99566.31;4983298;28;20480;-75
2022/04/22 09:57:22;;;;;;;9.83;7.87;;;;;;;15.23;51.60;99565.16;4983232;28;20487;-74
2022/04/22 09:59:51;;;;;;;9.07;7.97;;;;;;;15.34;51.97;99567.34;4982917;28;20482;-75
2022/04/22 10:02:21;;;;;;;13.03;8.47;;;;;;;15.40;51.97;99571.19;4981892;28;20922;-74
2022/04/22 10:04:48;;;;;;;10.40;7.90;;;;;;;15.46;52.28;99554.25;4974551;28;20457;-74
2022/04/22 10:07:17;;;;;;;9.17;7.97;;;;;;;15.29;52.19;99563.56;4968964;28;20543;-74
2022/04/22 10:09:45;;;;;;;10.17;7.73;;;;;;;16.11;51.36;99557.00;4983272;28;20473;-74
2022/04/22 10:12:13;;;;;;;9.00;7.50;;;;;;;14.97;52.44;99541.41;4982829;28;20511;-75
2022/04/22 10:14:40;;;;;;;10.50;7.27;;;;;;;15.03;53.24;99537.97;4983007;28;20531;-74
2022/04/22 10:17:07;;;;;;;8.87;7.07;;;;;;;16.69;50.12;99536.09;4982407;28;20472;-75
2022/04/22 10:19:34;;;;;;;9.40;7.27;;;;;;;18.88;43.74;99534.06;4981255;28;20582;-76
2022/04/22 10:22:02;;;;;;;11.20;6.40;;;;;;;20.60;40.50;99537.88;4965937;28;20499;-79
2022/04/22 10:24:31;;;;;;;11.30;7.37;;;;;;;19.54;42.14;99534.88;4983052;28;20452;-76
2022/04/22 10:26:59;;;;;;;9.40;6.63;;;;;;;19.35;41.14;99531.19;4989125;28;20801;-77
2022/04/22 10:29:27;;;;;;;7.90;7.00;;;;;;;18.35;44.42;99529.56;5002392;28;20482;-78
2022/04/22 10:31:53;;;;;;;7.70;6.50;;;;;;;18.31;43.99;99519.34;5000132;28;20510;-77
2022/04/22 10:34:20;;;;;;;8.40;7.60;;;;;;;17.65;45.91;99515.53;4983436;28;20507;-77
2022/04/22 10:36:55;;;;;;;12.13;7.70;;;;;;;18.90;43.61;99512.19;4981650;28;20519;-78
2022/04/22 10:39:35;;;;;;;10.60;7.43;;;;;;;17.56;46.06;99509.47;4973186;28;20526;-78
2022/04/22 10:42:03;;;;;;;9.80;7.57;;;;;;;17.46;47.06;99512.59;4981508;28;20533;-82
2022/04/22 10:47:17;;;;;;;8.97;8.03;;;;;;;16.80;48.44;99515.78;4990150;28;20522;-81
2022/04/22 10:49:44;;;;;;;9.10;8.20;;;;;;;16.34;49.27;99505.56;4991535;28;20480;-80
2022/04/22 10:52:13;;;;;;;10.67;8.30;;;;;;;16.40;48.95;99502.06;4991600;28;20483;-79
2022/04/22 10:55:09;;;;;;;11.60;8.10;;;;;;;15.93;50.49;99509.78;4971269;28;20464;-78
2022/04/22 10:57:39;;;;;;;10.47;7.53;;;;;;;16.38;49.70;99510.34;4967741;28;20476;-77
2022/04/22 11:00:29;;;;;;;9.47;6.80;;;;;;;15.46;51.26;99510.31;4976908;28;20466;-83
2022/04/22 11:03:13;;;;;;;11.30;8.27;;;;;;;15.45;51.73;99514.88;4987909;28;20986;-79
2022/04/22 11:05:44;;;;;;;9.67;8.27;;;;;;;15.65;51.52;99525.84;5001058;28;20474;-75
2022/04/22 11:08:18;;;;;;;11.10;8.37;;;;;;;15.55;51.85;99503.78;4994318;28;20447;-76
2022/04/22 11:11:02;;;;;;;12.83;9.00;;;;;;;15.34;52.39;99510.78;4961882;28;20485;-75
2022/04/22 11:13:32;;;;;;;13.80;8.97;;;;;;;15.36;53.26;99508.78;4972105;28;20479;-78
2022/04/22 11:15:59;;;;;;;12.50;8.57;;;;;;;15.25;53.33;99506.56;4978979;28;20539;-77
2022/04/22 11:18:25;;;;;;;9.13;7.90;;;;;;;15.22;52.96;99512.31;4982410;28;20484;-79
2022/04/22 11:20:54;;;;;;;8.73;7.80;;;;;;;15.00;53.53;99512.28;4992619;28;21022;-78
2022/04/22 11:23:21;;;;;;;9.90;8.13;;;;;;;15.03;53.94;99511.91;4984746;28;20930;-81
2022/04/22 11:25:51;;;;;;;11.20;8.80;;;;;;;14.88;53.77;99513.78;4981228;28;21036;-77
2022/04/22 11:28:19;;;;;;;11.70;8.67;;;;;;;15.25;52.97;99504.69;4981635;28;20441;-78
2022/04/22 11:30:48;;;;;;;12.13;8.10;;;;;;;14.79;54.16;99515.72;4980750;28;20477;-84
2022/04/22 11:33:20;;;;;;;11.27;8.87;;;;;;;15.03;54.44;99502.97;4994610;28;20498;-83
2022/04/22 11:35:50;;;;;;;9.70;8.37;;;;;;;14.50;54.16;99511.97;4985660;28;20515;-81
2022/04/22 11:38:17;;;;;;;10.63;9.00;;;;;;;14.61;53.65;99504.50;4982405;28;20437;-78
2022/04/22 11:40:47;;;;;;;12.10;9.37;;;;;;;14.84;53.98;99513.31;4977979;28;20545;-79
2022/04/22 11:43:15;;;;;;;12.43;9.37;;;;;;;14.54;54.04;99516.97;4968521;28;20457;-84
2022/04/22 11:45:44;;;;;;;12.00;9.33;;;;;;;14.47;53.70;99519.56;4981605;28;20659;-79
2022/04/22 11:48:13;;;;;;;14.07;10.17;;;;;;;14.77;52.40;99511.53;4981181;28;20489;-80
2022/04/22 11:50:41;;;;;;;10.67;9.03;;;;;;;14.72;52.77;99527.41;4980648;28;20480;-78
2022/04/22 11:53:08;;;;;;;14.73;9.93;;;;;;;14.55;52.64;99506.03;4981831;28;21000;-80
2022/04/22 11:55:37;;;;;;;15.23;9.40;;;;;;;14.74;52.55;99514.59;4981268;28;20507;-79
2022/04/22 11:58:04;;;;;;;12.77;9.40;;;;;;;15.19;52.62;99526.16;4981656;28;20515;-81
2022/04/22 12:06:00;;;;;;;13.43;10.50;;;;;;;15.38;50.86;99541.72;4978376;28;20499;-79
2022/04/22 12:08:26;;;;;;;14.27;10.70;;;;;;;15.76;50.93;99525.38;4981138;28;20469;-78
2022/04/22 12:10:53;;;;;;;14.73;10.17;;;;;;;15.69;50.21;99512.81;4980744;28;20480;-78
2022/04/22 12:13:20;;;;;;;13.33;9.47;;;;;;;15.56;51.00;99517.06;4980782;28;20870;-76
2022/04/22 12:15:48;;;;;;;10.57;9.30;;;;;;;15.35;51.24;99509.78;4981182;28;20469;-77
2022/04/22 12:18:30;;;;;;;11.20;10.00;;;;;;;15.72;50.92;99507.06;4981268;28;20452;-79
2022/04/22 12:20:57;;;;;;;10.60;9.07;;;;;;;15.54;50.37;99515.59;4978692;28;20849;-82
2022/04/22 12:23:25;;;;;;;10.90;9.50;;;;;;;15.42;51.05;99515.25;4980164;28;20457;-81
2022/04/22 12:25:55;;;;;;;10.87;9.40;;;;;;;15.44;50.40;99516.72;4979905;28;20573;-80
2022/04/22 12:28:24;;;;;;;12.03;9.00;;;;;;;15.54;50.51;99519.13;4980765;28;20524;-81